sensor_id;sensor_type;location;lat;lon;timestamp;temperature;humidity
48912;DHT22;34722;52.108;5.044;2023-07-24T00:00:30;18.30;99.90
48912;DHT22;34722;52.108;5.044;2023-07-24T00:02:56;18.40;99.90
48912;DHT22;34722;52.108;5.044;2023-07-24T00:05:22;18.30;99.90
48912;DHT22;34722;52.108;5.044;2023-07-24T00:08:09;18.30;99.90
48912;DHT22;34722;52.108;5.044;2023-07-24T00:11:12;18.30;99.90
48912;DHT22;34722;52.108;5.044;2023-07-24T00:13:37;18.30;99.90
48912;DHT22;34722;52.108;5.044;2023-07-24T00:16:09;18.30;99.90
48912;DHT22;34722;52.108;5.044;2023-07-24T00:18:36;18.20;99.90
48912;DHT22;34722;52.108;5.044;2023-07-24T00:21:02;18.20;99.90
48912;DHT22;34722;52.108;5.044;2023-07-24T00:23:27;18.20;99.90
48912;DHT22;34722;52.108;5.044;2023-07-24T00:25:53;18.10;99.90
48912;DHT22;34722;52.108;5.044;2023-07-24T00:28:20;18.10;99.90
48912;DHT22;34722;52.108;5.044;2023-07-24T00:30:46;18.00;99.90
48912;DHT22;34722;52.108;5.044;2023-07-24T00:33:11;18.00;99.90
48912;DHT22;34722;52.108;5.044;2023-07-24T00:35:37;18.00;99.90
48912;DHT22;34722;52.108;5.044;2023-07-24T00:38:03;18.00;99.90
48912;DHT22;34722;52.108;5.044;2023-07-24T00:40:28;18.00;99.90
48912;DHT22;34722;52.108;5.044;2023-07-24T00:42:54;18.00;99.90
48912;DHT22;34722;52.108;5.044;2023-07-24T00:45:21;17.90;99.90
48912;DHT22;34722;52.108;5.044;2023-07-24T00:47:47;17.90;99.90
48912;DHT22;34722;52.108;5.044;2023-07-24T00:50:13;17.80;99.90
48912;DHT22;34722;52.108;5.044;2023-07-24T00:52:40;17.80;99.90
48912;DHT22;34722;52.108;5.044;2023-07-24T00:55:06;17.80;99.90
48912;DHT22;34722;52.108;5.044;2023-07-24T00:57:32;17.70;99.90
48912;DHT22;34722;52.108;5.044;2023-07-24T00:59:59;17.70;99.90
48912;DHT22;34722;52.108;5.044;2023-07-24T01:05:47;17.70;99.90
48912;DHT22;34722;52.108;5.044;2023-07-24T01:08:14;17.70;99.90
48912;DHT22;34722;52.108;5.044;2023-07-24T01:10:39;17.70;99.90
48912;DHT22;34722;52.108;5.044;2023-07-24T01:13:09;17.80;99.90
48912;DHT22;34722;52.108;5.044;2023-07-24T01:18:59;17.80;99.90
48912;DHT22;34722;52.108;5.044;2023-07-24T01:21:38;17.80;99.90
48912;DHT22;34722;52.108;5.044;2023-07-24T01:24:24;17.80;99.90
48912;DHT22;34722;52.108;5.044;2023-07-24T01:26:55;17.80;99.90
48912;DHT22;34722;52.108;5.044;2023-07-24T01:29:22;17.80;99.90
48912;DHT22;34722;52.108;5.044;2023-07-24T01:31:48;17.70;99.90
48912;DHT22;34722;52.108;5.044;2023-07-24T01:34:14;17.70;99.90
48912;DHT22;34722;52.108;5.044;2023-07-24T01:36:40;17.60;99.90
48912;DHT22;34722;52.108;5.044;2023-07-24T01:39:07;17.60;99.90
48912;DHT22;34722;52.108;5.044;2023-07-24T01:41:33;17.70;99.90
48912;DHT22;34722;52.108;5.044;2023-07-24T01:43:59;17.70;99.90
48912;DHT22;34722;52.108;5.044;2023-07-24T01:46:25;17.70;99.90
48912;DHT22;34722;52.108;5.044;2023-07-24T01:48:50;17.70;99.90
48912;DHT22;34722;52.108;5.044;2023-07-24T01:51:30;17.70;99.90
48912;DHT22;34722;52.108;5.044;2023-07-24T01:59:07;17.70;99.90
48912;DHT22;34722;52.108;5.044;2023-07-24T02:01:42;17.70;99.90
48912;DHT22;34722;52.108;5.044;2023-07-24T02:04:17;17.70;99.90
48912;DHT22;34722;52.108;5.044;2023-07-24T02:06:43;17.70;99.90
48912;DHT22;34722;52.108;5.044;2023-07-24T02:09:09;17.70;99.90
48912;DHT22;34722;52.108;5.044;2023-07-24T02:11:35;17.70;99.90
48912;DHT22;34722;52.108;5.044;2023-07-24T02:14:01;17.70;99.90
48912;DHT22;34722;52.108;5.044;2023-07-24T02:16:27;17.70;99.90
48912;DHT22;34722;52.108;5.044;2023-07-24T02:18:53;17.70;99.90
48912;DHT22;34722;52.108;5.044;2023-07-24T02:21:19;17.80;99.90
48912;DHT22;34722;52.108;5.044;2023-07-24T02:23:45;17.80;99.90
48912;DHT22;34722;52.108;5.044;2023-07-24T02:26:11;17.80;99.90
48912;DHT22;34722;52.108;5.044;2023-07-24T02:28:37;17.80;99.90
48912;DHT22;34722;52.108;5.044;2023-07-24T02:31:03;17.80;99.90
48912;DHT22;34722;52.108;5.044;2023-07-24T02:33:29;17.80;99.90
48912;DHT22;34722;52.108;5.044;2023-07-24T02:35:55;17.80;99.90
48912;DHT22;34722;52.108;5.044;2023-07-24T02:38:20;17.80;99.90
48912;DHT22;34722;52.108;5.044;2023-07-24T02:40:46;17.80;99.90
48912;DHT22;34722;52.108;5.044;2023-07-24T02:43:12;17.80;99.90
48912;DHT22;34722;52.108;5.044;2023-07-24T02:45:38;17.70;99.90
48912;DHT22;34722;52.108;5.044;2023-07-24T02:48:04;17.70;99.90
48912;DHT22;34722;52.108;5.044;2023-07-24T02:50:30;17.60;99.90
48912;DHT22;34722;52.108;5.044;2023-07-24T02:52:55;17.50;99.90
48912;DHT22;34722;52.108;5.044;2023-07-24T02:55:21;17.60;99.90
48912;DHT22;34722;52.108;5.044;2023-07-24T02:57:47;17.60;99.90
48912;DHT22;34722;52.108;5.044;2023-07-24T03:00:13;17.60;99.90
48912;DHT22;34722;52.108;5.044;2023-07-24T03:02:39;17.50;99.90
48912;DHT22;34722;52.108;5.044;2023-07-24T03:05:05;17.60;99.90
48912;DHT22;34722;52.108;5.044;2023-07-24T03:07:32;17.50;99.90
48912;DHT22;34722;52.108;5.044;2023-07-24T03:09:58;17.50;99.90
48912;DHT22;34722;52.108;5.044;2023-07-24T03:12:39;17.50;99.90
48912;DHT22;34722;52.108;5.044;2023-07-24T03:18:24;17.40;99.90
48912;DHT22;34722;52.108;5.044;2023-07-24T03:20:50;17.40;99.90
48912;DHT22;34722;52.108;5.044;2023-07-24T03:23:15;17.40;99.90
48912;DHT22;34722;52.108;5.044;2023-07-24T03:25:41;17.40;99.90
48912;DHT22;34722;52.108;5.044;2023-07-24T03:28:07;17.40;99.90
48912;DHT22;34722;52.108;5.044;2023-07-24T03:30:33;17.40;99.90
48912;DHT22;34722;52.108;5.044;2023-07-24T03:36:20;17.40;99.90
48912;DHT22;34722;52.108;5.044;2023-07-24T03:39:17;17.30;99.90
48912;DHT22;34722;52.108;5.044;2023-07-24T03:41:43;17.40;99.90
48912;DHT22;34722;52.108;5.044;2023-07-24T03:44:09;17.30;99.90
48912;DHT22;34722;52.108;5.044;2023-07-24T03:46:35;17.40;99.90
48912;DHT22;34722;52.108;5.044;2023-07-24T03:49:01;17.30;99.90
48912;DHT22;34722;52.108;5.044;2023-07-24T03:51:26;17.30;99.90
48912;DHT22;34722;52.108;5.044;2023-07-24T03:53:52;17.30;99.90
48912;DHT22;34722;52.108;5.044;2023-07-24T03:56:18;17.30;99.90
48912;DHT22;34722;52.108;5.044;2023-07-24T03:58:44;17.20;99.90
48912;DHT22;34722;52.108;5.044;2023-07-24T04:01:10;17.20;99.90
48912;DHT22;34722;52.108;5.044;2023-07-24T04:03:36;17.20;99.90
48912;DHT22;34722;52.108;5.044;2023-07-24T04:06:02;17.30;99.90
48912;DHT22;34722;52.108;5.044;2023-07-24T04:08:27;17.20;99.90
48912;DHT22;34722;52.108;5.044;2023-07-24T04:10:59;17.30;99.90
48912;DHT22;34722;52.108;5.044;2023-07-24T04:13:25;17.30;99.90
48912;DHT22;34722;52.108;5.044;2023-07-24T04:15:51;17.30;99.90
48912;DHT22;34722;52.108;5.044;2023-07-24T04:18:16;17.30;99.90
48912;DHT22;34722;52.108;5.044;2023-07-24T04:20:42;17.30;99.90
48912;DHT22;34722;52.108;5.044;2023-07-24T04:23:08;17.30;99.90
48912;DHT22;34722;52.108;5.044;2023-07-24T04:25:33;17.30;99.90
48912;DHT22;34722;52.108;5.044;2023-07-24T04:27:59;17.40;99.90
48912;DHT22;34722;52.108;5.044;2023-07-24T04:30:25;17.40;99.90
48912;DHT22;34722;52.108;5.044;2023-07-24T04:32:51;17.40;99.90
48912;DHT22;34722;52.108;5.044;2023-07-24T04:35:17;17.40;99.90
48912;DHT22;34722;52.108;5.044;2023-07-24T04:41:05;17.40;99.90
48912;DHT22;34722;52.108;5.044;2023-07-24T04:43:31;17.40;99.90
48912;DHT22;34722;52.108;5.044;2023-07-24T04:45:56;17.40;99.90
48912;DHT22;34722;52.108;5.044;2023-07-24T04:48:22;17.40;99.90
48912;DHT22;34722;52.108;5.044;2023-07-24T04:50:55;17.40;99.90
48912;DHT22;34722;52.108;5.044;2023-07-24T04:53:22;17.40;99.90
48912;DHT22;34722;52.108;5.044;2023-07-24T04:55:48;17.30;99.90
48912;DHT22;34722;52.108;5.044;2023-07-24T04:58:13;17.40;99.90
48912;DHT22;34722;52.108;5.044;2023-07-24T05:00:39;17.40;99.90
48912;DHT22;34722;52.108;5.044;2023-07-24T05:03:05;17.30;99.90
48912;DHT22;34722;52.108;5.044;2023-07-24T05:05:55;17.40;99.90
48912;DHT22;34722;52.108;5.044;2023-07-24T05:08:21;17.40;99.90
48912;DHT22;34722;52.108;5.044;2023-07-24T05:10:47;17.40;99.90
48912;DHT22;34722;52.108;5.044;2023-07-24T05:13:13;17.50;99.90
48912;DHT22;34722;52.108;5.044;2023-07-24T05:15:38;17.50;99.90
48912;DHT22;34722;52.108;5.044;2023-07-24T05:18:04;17.60;99.90
48912;DHT22;34722;52.108;5.044;2023-07-24T05:20:30;17.70;99.90
48912;DHT22;34722;52.108;5.044;2023-07-24T05:22:55;17.90;99.90
48912;DHT22;34722;52.108;5.044;2023-07-24T05:25:21;18.00;99.90
48912;DHT22;34722;52.108;5.044;2023-07-24T05:27:46;18.20;99.90
48912;DHT22;34722;52.108;5.044;2023-07-24T05:30:12;18.30;99.90
48912;DHT22;34722;52.108;5.044;2023-07-24T05:32:45;18.30;99.90
48912;DHT22;34722;52.108;5.044;2023-07-24T05:35:11;18.30;99.90
48912;DHT22;34722;52.108;5.044;2023-07-24T05:37:37;18.40;99.90
48912;DHT22;34722;52.108;5.044;2023-07-24T05:40:03;18.50;99.90
48912;DHT22;34722;52.108;5.044;2023-07-24T05:42:29;18.60;99.90
48912;DHT22;34722;52.108;5.044;2023-07-24T05:44:55;18.60;99.90
48912;DHT22;34722;52.108;5.044;2023-07-24T05:47:22;18.90;99.90
48912;DHT22;34722;52.108;5.044;2023-07-24T05:49:47;19.10;99.90
48912;DHT22;34722;52.108;5.044;2023-07-24T05:52:13;19.30;99.90
48912;DHT22;34722;52.108;5.044;2023-07-24T05:54:40;19.60;99.90
48912;DHT22;34722;52.108;5.044;2023-07-24T05:57:09;19.80;99.90
48912;DHT22;34722;52.108;5.044;2023-07-24T05:59:35;19.70;99.90
48912;DHT22;34722;52.108;5.044;2023-07-24T06:02:10;19.50;99.90
48912;DHT22;34722;52.108;5.044;2023-07-24T06:04:38;19.40;99.90
48912;DHT22;34722;52.108;5.044;2023-07-24T06:07:05;19.30;99.90
48912;DHT22;34722;52.108;5.044;2023-07-24T06:09:31;19.20;99.90
48912;DHT22;34722;52.108;5.044;2023-07-24T06:11:58;19.10;99.90
48912;DHT22;34722;52.108;5.044;2023-07-24T06:14:26;19.20;99.90
48912;DHT22;34722;52.108;5.044;2023-07-24T06:16:52;19.30;99.90
48912;DHT22;34722;52.108;5.044;2023-07-24T06:19:18;19.40;99.90
48912;DHT22;34722;52.108;5.044;2023-07-24T06:21:54;19.40;99.90
48912;DHT22;34722;52.108;5.044;2023-07-24T06:24:19;19.40;99.90
48912;DHT22;34722;52.108;5.044;2023-07-24T06:26:46;19.40;99.90
48912;DHT22;34722;52.108;5.044;2023-07-24T06:29:12;19.50;99.90
48912;DHT22;34722;52.108;5.044;2023-07-24T06:31:37;19.50;99.90
48912;DHT22;34722;52.108;5.044;2023-07-24T06:34:03;19.50;99.90
48912;DHT22;34722;52.108;5.044;2023-07-24T06:36:29;19.40;99.90
48912;DHT22;34722;52.108;5.044;2023-07-24T06:38:55;19.40;99.90
48912;DHT22;34722;52.108;5.044;2023-07-24T06:41:21;19.50;99.90
48912;DHT22;34722;52.108;5.044;2023-07-24T06:43:49;19.90;99.90
48912;DHT22;34722;52.108;5.044;2023-07-24T06:46:15;21.00;99.90
48912;DHT22;34722;52.108;5.044;2023-07-24T06:48:53;22.20;99.90
48912;DHT22;34722;52.108;5.044;2023-07-24T06:51:19;22.90;99.90
48912;DHT22;34722;52.108;5.044;2023-07-24T06:53:45;23.70;99.90
48912;DHT22;34722;52.108;5.044;2023-07-24T06:56:11;23.40;17.20
48912;DHT22;34722;52.108;5.044;2023-07-24T06:58:37;23.10;1.00
48912;DHT22;34722;52.108;5.044;2023-07-24T07:18:01;23.10;1.00
48912;DHT22;34722;52.108;5.044;2023-07-24T07:20:27;23.80;1.00
48912;DHT22;34722;52.108;5.044;2023-07-24T07:22:53;23.70;56.40
48912;DHT22;34722;52.108;5.044;2023-07-24T07:25:20;24.10;1.00
48912;DHT22;34722;52.108;5.044;2023-07-24T07:27:46;23.50;99.90
48912;DHT22;34722;52.108;5.044;2023-07-24T07:30:13;23.30;1.00
48912;DHT22;34722;52.108;5.044;2023-07-24T07:32:39;22.90;88.90
48912;DHT22;34722;52.108;5.044;2023-07-24T07:35:25;22.80;99.90
48912;DHT22;34722;52.108;5.044;2023-07-24T07:37:51;22.30;1.00
48912;DHT22;34722;52.108;5.044;2023-07-24T07:40:17;22.10;1.00
48912;DHT22;34722;52.108;5.044;2023-07-24T07:42:43;22.70;1.00
48912;DHT22;34722;52.108;5.044;2023-07-24T07:45:10;24.20;99.90
48912;DHT22;34722;52.108;5.044;2023-07-24T07:47:36;24.60;1.00
48912;DHT22;34722;52.108;5.044;2023-07-24T07:50:02;24.50;1.00
48912;DHT22;34722;52.108;5.044;2023-07-24T07:52:28;24.50;1.00
48912;DHT22;34722;52.108;5.044;2023-07-24T07:54:55;24.80;99.90
48912;DHT22;34722;52.108;5.044;2023-07-24T07:57:28;25.90;99.90
48912;DHT22;34722;52.108;5.044;2023-07-24T07:59:54;26.60;99.90
48912;DHT22;34722;52.108;5.044;2023-07-24T08:02:20;27.60;1.00
48912;DHT22;34722;52.108;5.044;2023-07-24T08:04:46;28.50;99.90
48912;DHT22;34722;52.108;5.044;2023-07-24T08:07:13;28.30;1.00
48912;DHT22;34722;52.108;5.044;2023-07-24T08:12:28;29.10;1.00
48912;DHT22;34722;52.108;5.044;2023-07-24T08:14:56;28.60;1.00
48912;DHT22;34722;52.108;5.044;2023-07-24T08:17:22;26.30;99.90
48912;DHT22;34722;52.108;5.044;2023-07-24T08:19:48;25.80;99.90
48912;DHT22;34722;52.108;5.044;2023-07-24T08:32:20;27.30;99.90
48912;DHT22;34722;52.108;5.044;2023-07-24T08:34:46;27.60;83.70
48912;DHT22;34722;52.108;5.044;2023-07-24T08:37:11;27.90;1.00
48912;DHT22;34722;52.108;5.044;2023-07-24T08:39:38;27.50;99.90
48912;DHT22;34722;52.108;5.044;2023-07-24T08:42:14;27.10;4.00
48912;DHT22;34722;52.108;5.044;2023-07-24T08:44:40;27.70;1.00
48912;DHT22;34722;52.108;5.044;2023-07-24T08:47:10;29.50;1.00
48912;DHT22;34722;52.108;5.044;2023-07-24T08:49:38;28.70;99.90
48912;DHT22;34722;52.108;5.044;2023-07-24T08:52:06;28.10;99.90
48912;DHT22;34722;52.108;5.044;2023-07-24T08:54:32;27.00;1.00
48912;DHT22;34722;52.108;5.044;2023-07-24T08:57:02;26.20;95.30
48912;DHT22;34722;52.108;5.044;2023-07-24T08:59:29;24.70;99.90
48912;DHT22;34722;52.108;5.044;2023-07-24T09:01:55;24.30;99.90
48912;DHT22;34722;52.108;5.044;2023-07-24T09:04:21;23.60;99.90
48912;DHT22;34722;52.108;5.044;2023-07-24T09:06:48;22.90;99.90
48912;DHT22;34722;52.108;5.044;2023-07-24T09:09:15;22.60;99.90
48912;DHT22;34722;52.108;5.044;2023-07-24T09:11:52;22.50;99.90
48912;DHT22;34722;52.108;5.044;2023-07-24T09:14:26;22.40;99.90
48912;DHT22;34722;52.108;5.044;2023-07-24T09:17:06;22.40;1.00
48912;DHT22;34722;52.108;5.044;2023-07-24T09:19:32;22.70;99.90
48912;DHT22;34722;52.108;5.044;2023-07-24T09:22:15;22.50;1.00
48912;DHT22;34722;52.108;5.044;2023-07-24T09:24:56;22.00;1.00
48912;DHT22;34722;52.108;5.044;2023-07-24T09:37:51;21.40;8.80
48912;DHT22;34722;52.108;5.044;2023-07-24T09:40:40;21.80;1.00
48912;DHT22;34722;52.108;5.044;2023-07-24T09:43:30;22.00;1.00
48912;DHT22;34722;52.108;5.044;2023-07-24T09:46:54;22.10;1.00
48912;DHT22;34722;52.108;5.044;2023-07-24T09:49:27;22.20;1.00
48912;DHT22;34722;52.108;5.044;2023-07-24T09:52:03;22.90;1.00
48912;DHT22;34722;52.108;5.044;2023-07-24T09:54:38;25.00;99.90
48912;DHT22;34722;52.108;5.044;2023-07-24T09:57:11;26.90;99.90
48912;DHT22;34722;52.108;5.044;2023-07-24T09:59:44;27.20;1.00
48912;DHT22;34722;52.108;5.044;2023-07-24T10:02:12;27.80;99.90
48912;DHT22;34722;52.108;5.044;2023-07-24T10:04:51;28.60;1.00
48912;DHT22;34722;52.108;5.044;2023-07-24T10:07:19;27.80;1.00
48912;DHT22;34722;52.108;5.044;2023-07-24T10:09:50;27.40;1.00
48912;DHT22;34722;52.108;5.044;2023-07-24T10:12:22;26.90;1.00
48912;DHT22;34722;52.108;5.044;2023-07-24T10:14:50;26.80;99.90
48912;DHT22;34722;52.108;5.044;2023-07-24T10:17:34;26.20;11.70
48912;DHT22;34722;52.108;5.044;2023-07-24T10:20:07;27.30;99.90
48912;DHT22;34722;52.108;5.044;2023-07-24T10:22:45;27.70;84.40
48912;DHT22;34722;52.108;5.044;2023-07-24T10:25:17;26.30;51.10
48912;DHT22;34722;52.108;5.044;2023-07-24T10:28:12;25.80;1.00
48912;DHT22;34722;52.108;5.044;2023-07-24T10:31:03;25.00;1.00
48912;DHT22;34722;52.108;5.044;2023-07-24T10:34:16;25.40;99.90
48912;DHT22;34722;52.108;5.044;2023-07-24T10:36:45;28.20;99.90
48912;DHT22;34722;52.108;5.044;2023-07-24T10:39:22;29.40;1.00
48912;DHT22;34722;52.108;5.044;2023-07-24T10:42:10;28.40;99.90
48912;DHT22;34722;52.108;5.044;2023-07-24T10:44:41;27.20;1.00
48912;DHT22;34722;52.108;5.044;2023-07-24T10:47:30;27.40;1.00
48912;DHT22;34722;52.108;5.044;2023-07-24T10:50:35;26.80;1.00
48912;DHT22;34722;52.108;5.044;2023-07-24T10:55:42;26.10;99.90
48912;DHT22;34722;52.108;5.044;2023-07-24T10:58:09;27.80;1.00
48912;DHT22;34722;52.108;5.044;2023-07-24T11:00:46;28.70;99.90
48912;DHT22;34722;52.108;5.044;2023-07-24T11:03:53;29.30;99.90
48912;DHT22;34722;52.108;5.044;2023-07-24T11:06:23;30.80;99.90
48912;DHT22;34722;52.108;5.044;2023-07-24T11:08:57;29.70;99.90
48912;DHT22;34722;52.108;5.044;2023-07-24T11:11:35;27.70;99.90
48912;DHT22;34722;52.108;5.044;2023-07-24T11:14:21;26.90;1.00
48912;DHT22;34722;52.108;5.044;2023-07-24T11:17:10;26.20;99.90
48912;DHT22;34722;52.108;5.044;2023-07-24T11:19:39;26.20;99.90
48912;DHT22;34722;52.108;5.044;2023-07-24T11:22:09;26.00;99.90
48912;DHT22;34722;52.108;5.044;2023-07-24T11:24:49;27.20;99.90
48912;DHT22;34722;52.108;5.044;2023-07-24T11:27:19;27.70;1.00
48912;DHT22;34722;52.108;5.044;2023-07-24T11:29:50;27.30;99.90
48912;DHT22;34722;52.108;5.044;2023-07-24T11:32:23;26.00;85.10
48912;DHT22;34722;52.108;5.044;2023-07-24T11:34:51;26.20;99.90
48912;DHT22;34722;52.108;5.044;2023-07-24T11:37:18;26.60;15.50
48912;DHT22;34722;52.108;5.044;2023-07-24T11:40:01;26.30;99.90
48912;DHT22;34722;52.108;5.044;2023-07-24T11:42:43;26.50;1.00
48912;DHT22;34722;52.108;5.044;2023-07-24T11:45:11;26.90;1.00
48912;DHT22;34722;52.108;5.044;2023-07-24T11:47:48;26.70;1.00
48912;DHT22;34722;52.108;5.044;2023-07-24T11:50:18;25.70;1.00
48912;DHT22;34722;52.108;5.044;2023-07-24T11:52:49;25.20;99.90
48912;DHT22;34722;52.108;5.044;2023-07-24T11:55:37;24.20;1.00
48912;DHT22;34722;52.108;5.044;2023-07-24T11:58:04;23.20;1.00
48912;DHT22;34722;52.108;5.044;2023-07-24T12:00:40;22.60;1.00
48912;DHT22;34722;52.108;5.044;2023-07-24T12:03:07;22.20;1.00
48912;DHT22;34722;52.108;5.044;2023-07-24T12:05:40;22.10;30.00
48912;DHT22;34722;52.108;5.044;2023-07-24T12:08:09;22.10;51.00
48912;DHT22;34722;52.108;5.044;2023-07-24T12:10:51;22.00;50.70
48912;DHT22;34722;52.108;5.044;2023-07-24T12:13:20;21.60;99.90
48912;DHT22;34722;52.108;5.044;2023-07-24T12:15:50;21.10;99.90
48912;DHT22;34722;52.108;5.044;2023-07-24T12:18:41;20.70;99.90
48912;DHT22;34722;52.108;5.044;2023-07-24T12:21:27;20.40;99.90
48912;DHT22;34722;52.108;5.044;2023-07-24T12:23:54;20.30;99.90
48912;DHT22;34722;52.108;5.044;2023-07-24T12:26:23;20.30;99.90
48912;DHT22;34722;52.108;5.044;2023-07-24T12:29:10;20.30;99.90
48912;DHT22;34722;52.108;5.044;2023-07-24T12:31:39;20.30;99.90
48912;DHT22;34722;52.108;5.044;2023-07-24T12:34:14;20.30;99.90
48912;DHT22;34722;52.108;5.044;2023-07-24T12:36:43;20.20;99.90
48912;DHT22;34722;52.108;5.044;2023-07-24T12:39:14;20.40;99.90
48912;DHT22;34722;52.108;5.044;2023-07-24T12:41:41;20.70;99.90
48912;DHT22;34722;52.108;5.044;2023-07-24T12:44:08;20.90;99.90
48912;DHT22;34722;52.108;5.044;2023-07-24T12:46:36;20.90;99.90
48912;DHT22;34722;52.108;5.044;2023-07-24T12:49:06;21.20;99.90
48912;DHT22;34722;52.108;5.044;2023-07-24T12:51:32;22.00;99.90
48912;DHT22;34722;52.108;5.044;2023-07-24T12:53:58;22.60;99.90
48912;DHT22;34722;52.108;5.044;2023-07-24T12:56:24;22.60;99.90
48912;DHT22;34722;52.108;5.044;2023-07-24T12:58:50;22.30;99.90
48912;DHT22;34722;52.108;5.044;2023-07-24T13:01:22;22.00;99.90
48912;DHT22;34722;52.108;5.044;2023-07-24T13:03:51;21.80;99.90
48912;DHT22;34722;52.108;5.044;2023-07-24T13:06:22;21.40;99.90
48912;DHT22;34722;52.108;5.044;2023-07-24T13:08:51;21.20;99.90
48912;DHT22;34722;52.108;5.044;2023-07-24T13:11:23;21.00;99.90
48912;DHT22;34722;52.108;5.044;2023-07-24T13:13:52;21.00;99.90
48912;DHT22;34722;52.108;5.044;2023-07-24T13:16:23;20.80;99.90
48912;DHT22;34722;52.108;5.044;2023-07-24T13:18:53;20.80;99.90
48912;DHT22;34722;52.108;5.044;2023-07-24T13:21:21;20.90;99.90
48912;DHT22;34722;52.108;5.044;2023-07-24T13:23:58;21.10;99.90
48912;DHT22;34722;52.108;5.044;2023-07-24T13:26:33;21.40;99.90
48912;DHT22;34722;52.108;5.044;2023-07-24T13:29:25;22.60;99.90
48912;DHT22;34722;52.108;5.044;2023-07-24T13:32:43;23.50;99.90
48912;DHT22;34722;52.108;5.044;2023-07-24T13:35:55;23.30;1.00
48912;DHT22;34722;52.108;5.044;2023-07-24T13:39:01;23.40;1.00
48912;DHT22;34722;52.108;5.044;2023-07-24T13:41:39;23.40;1.00
48912;DHT22;34722;52.108;5.044;2023-07-24T13:44:22;23.90;99.90
48912;DHT22;34722;52.108;5.044;2023-07-24T13:47:34;23.90;99.90
48912;DHT22;34722;52.108;5.044;2023-07-24T13:51:12;23.40;99.90
48912;DHT22;34722;52.108;5.044;2023-07-24T13:53:43;23.20;1.00
48912;DHT22;34722;52.108;5.044;2023-07-24T14:00:01;23.10;1.00
48912;DHT22;34722;52.108;5.044;2023-07-24T14:02:51;23.10;1.00
48912;DHT22;34722;52.108;5.044;2023-07-24T14:05:58;22.80;99.90
48912;DHT22;34722;52.108;5.044;2023-07-24T19:00:09;17.30;69.40
48912;DHT22;34722;52.108;5.044;2023-07-24T19:02:36;17.20;63.70
48912;DHT22;34722;52.108;5.044;2023-07-24T19:05:01;17.30;78.40
48912;DHT22;34722;52.108;5.044;2023-07-24T19:07:27;17.20;58.20
48912;DHT22;34722;52.108;5.044;2023-07-24T19:09:53;17.20;53.50
48912;DHT22;34722;52.108;5.044;2023-07-24T19:12:19;17.20;48.90
48912;DHT22;34722;52.108;5.044;2023-07-24T19:14:44;17.30;44.30
48912;DHT22;34722;52.108;5.044;2023-07-24T19:17:10;17.30;53.40
48912;DHT22;34722;52.108;5.044;2023-07-24T19:19:36;17.20;69.10
48912;DHT22;34722;52.108;5.044;2023-07-24T19:22:03;17.20;91.70
48912;DHT22;34722;52.108;5.044;2023-07-24T19:24:29;17.10;77.20
48912;DHT22;34722;52.108;5.044;2023-07-24T19:26:55;17.10;92.00
48912;DHT22;34722;52.108;5.044;2023-07-24T19:29:20;17.00;99.70
48912;DHT22;34722;52.108;5.044;2023-07-24T19:31:46;16.90;99.90
48912;DHT22;34722;52.108;5.044;2023-07-24T19:34:14;16.80;99.90
48912;DHT22;34722;52.108;5.044;2023-07-24T19:36:40;16.60;99.90
48912;DHT22;34722;52.108;5.044;2023-07-24T19:39:06;16.50;99.90
48912;DHT22;34722;52.108;5.044;2023-07-24T19:41:31;16.30;99.90
48912;DHT22;34722;52.108;5.044;2023-07-24T19:43:57;16.20;99.90
48912;DHT22;34722;52.108;5.044;2023-07-24T19:46:23;16.10;99.90
48912;DHT22;34722;52.108;5.044;2023-07-24T19:48:48;16.00;99.90
48912;DHT22;34722;52.108;5.044;2023-07-24T19:51:14;15.90;99.90
48912;DHT22;34722;52.108;5.044;2023-07-24T19:53:40;15.80;99.90
48912;DHT22;34722;52.108;5.044;2023-07-24T19:56:05;15.70;99.90
48912;DHT22;34722;52.108;5.044;2023-07-24T19:58:31;15.60;99.90
48912;DHT22;34722;52.108;5.044;2023-07-24T20:01:03;15.60;99.90
48912;DHT22;34722;52.108;5.044;2023-07-24T20:03:29;15.60;99.90
48912;DHT22;34722;52.108;5.044;2023-07-24T20:06:03;15.60;99.90
48912;DHT22;34722;52.108;5.044;2023-07-24T20:08:30;15.60;99.90
48912;DHT22;34722;52.108;5.044;2023-07-24T20:10:58;15.50;99.90
48912;DHT22;34722;52.108;5.044;2023-07-24T20:13:31;15.40;99.90
48912;DHT22;34722;52.108;5.044;2023-07-24T20:15:57;15.40;99.90
48912;DHT22;34722;52.108;5.044;2023-07-24T20:21:52;15.20;99.90
48912;DHT22;34722;52.108;5.044;2023-07-24T20:24:24;15.10;99.90
48912;DHT22;34722;52.108;5.044;2023-07-24T20:27:02;15.00;99.90
48912;DHT22;34722;52.108;5.044;2023-07-24T20:30:11;14.90;99.90
48912;DHT22;34722;52.108;5.044;2023-07-24T20:33:06;14.80;99.90
48912;DHT22;34722;52.108;5.044;2023-07-24T20:35:40;14.70;99.90
48912;DHT22;34722;52.108;5.044;2023-07-24T20:38:30;14.60;99.90
48912;DHT22;34722;52.108;5.044;2023-07-24T20:51:24;14.40;99.90
48912;DHT22;34722;52.108;5.044;2023-07-24T20:53:51;14.30;99.90
48912;DHT22;34722;52.108;5.044;2023-07-24T20:56:16;14.20;99.90
48912;DHT22;34722;52.108;5.044;2023-07-24T20:58:49;14.20;99.90
48912;DHT22;34722;52.108;5.044;2023-07-24T21:28:56;13.70;99.90
48912;DHT22;34722;52.108;5.044;2023-07-24T21:31:24;13.60;99.90
48912;DHT22;34722;52.108;5.044;2023-07-24T21:33:49;13.60;99.90
48912;DHT22;34722;52.108;5.044;2023-07-24T21:36:15;13.50;99.90
48912;DHT22;34722;52.108;5.044;2023-07-24T21:38:41;13.50;99.90
48912;DHT22;34722;52.108;5.044;2023-07-24T21:41:07;13.40;99.90
48912;DHT22;34722;52.108;5.044;2023-07-24T21:43:39;13.40;99.90
48912;DHT22;34722;52.108;5.044;2023-07-24T21:46:05;13.40;99.90
48912;DHT22;34722;52.108;5.044;2023-07-24T21:48:31;13.30;99.90
48912;DHT22;34722;52.108;5.044;2023-07-24T21:50:56;13.30;99.90
48912;DHT22;34722;52.108;5.044;2023-07-24T21:53:22;13.30;99.90
48912;DHT22;34722;52.108;5.044;2023-07-24T21:55:48;13.30;99.90
48912;DHT22;34722;52.108;5.044;2023-07-24T21:58:14;13.20;99.90
48912;DHT22;34722;52.108;5.044;2023-07-24T22:00:40;13.20;99.90
48912;DHT22;34722;52.108;5.044;2023-07-24T22:03:05;13.20;99.90
48912;DHT22;34722;52.108;5.044;2023-07-24T22:05:31;13.10;99.90
48912;DHT22;34722;52.108;5.044;2023-07-24T22:07:57;13.10;99.90
48912;DHT22;34722;52.108;5.044;2023-07-24T22:10:23;13.10;99.90
48912;DHT22;34722;52.108;5.044;2023-07-24T22:12:49;13.00;99.90
48912;DHT22;34722;52.108;5.044;2023-07-24T22:15:17;13.00;99.90
48912;DHT22;34722;52.108;5.044;2023-07-24T22:17:43;13.00;99.90
48912;DHT22;34722;52.108;5.044;2023-07-24T22:20:09;13.00;99.90
48912;DHT22;34722;52.108;5.044;2023-07-24T22:22:37;12.90;99.90
48912;DHT22;34722;52.108;5.044;2023-07-24T22:25:04;12.90;99.90
48912;DHT22;34722;52.108;5.044;2023-07-24T22:27:30;12.90;99.90
48912;DHT22;34722;52.108;5.044;2023-07-24T22:29:56;12.90;99.90
48912;DHT22;34722;52.108;5.044;2023-07-24T22:32:22;12.90;99.90
48912;DHT22;34722;52.108;5.044;2023-07-24T22:34:49;12.80;99.90